sensor_id;sensor_type;location;lat;lon;timestamp;temperature;humidity
53962;DHT22;39868;53.398;6.564;2023-06-19T00:01:09;22.40;71.10
53962;DHT22;39868;53.398;6.564;2023-06-19T00:03:36;22.40;71.10
53962;DHT22;39868;53.398;6.564;2023-06-19T00:06:06;22.40;71.20
53962;DHT22;39868;53.398;6.564;2023-06-19T00:08:33;22.40;71.20
53962;DHT22;39868;53.398;6.564;2023-06-19T00:11:01;22.40;71.40
53962;DHT22;39868;53.398;6.564;2023-06-19T00:13:28;22.40;71.30
53962;DHT22;39868;53.398;6.564;2023-06-19T00:15:55;22.40;71.40
53962;DHT22;39868;53.398;6.564;2023-06-19T00:18:27;22.40;71.40
53962;DHT22;39868;53.398;6.564;2023-06-19T00:20:55;22.40;71.40
53962;DHT22;39868;53.398;6.564;2023-06-19T00:23:23;22.40;71.50
53962;DHT22;39868;53.398;6.564;2023-06-19T00:25:50;22.40;71.50
53962;DHT22;39868;53.398;6.564;2023-06-19T00:28:17;22.40;71.60
53962;DHT22;39868;53.398;6.564;2023-06-19T00:30:46;22.40;71.60
53962;DHT22;39868;53.398;6.564;2023-06-19T00:33:16;22.30;71.60
53962;DHT22;39868;53.398;6.564;2023-06-19T00:35:44;22.40;71.60
53962;DHT22;39868;53.398;6.564;2023-06-19T00:38:11;22.30;71.60
53962;DHT22;39868;53.398;6.564;2023-06-19T00:40:39;22.40;71.70
53962;DHT22;39868;53.398;6.564;2023-06-19T00:43:08;22.40;71.80
53962;DHT22;39868;53.398;6.564;2023-06-19T00:45:35;22.30;71.70
53962;DHT22;39868;53.398;6.564;2023-06-19T00:48:03;22.30;71.70
53962;DHT22;39868;53.398;6.564;2023-06-19T00:50:31;22.40;71.80
53962;DHT22;39868;53.398;6.564;2023-06-19T00:52:58;22.30;71.80
53962;DHT22;39868;53.398;6.564;2023-06-19T00:55:28;22.30;71.80
53962;DHT22;39868;53.398;6.564;2023-06-19T00:57:57;22.30;71.80
53962;DHT22;39868;53.398;6.564;2023-06-19T01:00:24;22.40;71.90
53962;DHT22;39868;53.398;6.564;2023-06-19T01:02:52;22.40;71.90
53962;DHT22;39868;53.398;6.564;2023-06-19T01:05:22;22.40;72.00
53962;DHT22;39868;53.398;6.564;2023-06-19T01:07:58;22.40;72.00
53962;DHT22;39868;53.398;6.564;2023-06-19T01:10:27;22.40;72.00
53962;DHT22;39868;53.398;6.564;2023-06-19T01:15:25;22.40;72.00
53962;DHT22;39868;53.398;6.564;2023-06-19T01:17:54;22.40;72.00
53962;DHT22;39868;53.398;6.564;2023-06-19T01:20:21;22.40;72.00
53962;DHT22;39868;53.398;6.564;2023-06-19T01:22:49;22.40;72.00
53962;DHT22;39868;53.398;6.564;2023-06-19T01:25:16;22.40;72.00
53962;DHT22;39868;53.398;6.564;2023-06-19T01:27:44;22.40;72.00
53962;DHT22;39868;53.398;6.564;2023-06-19T01:30:11;22.40;72.00
53962;DHT22;39868;53.398;6.564;2023-06-19T01:35:10;22.50;72.00
53962;DHT22;39868;53.398;6.564;2023-06-19T01:37:39;22.50;72.00
53962;DHT22;39868;53.398;6.564;2023-06-19T01:40:08;22.40;72.00
53962;DHT22;39868;53.398;6.564;2023-06-19T01:42:39;22.50;72.00
53962;DHT22;39868;53.398;6.564;2023-06-19T01:45:08;22.50;72.00
53962;DHT22;39868;53.398;6.564;2023-06-19T01:47:36;22.50;72.00
53962;DHT22;39868;53.398;6.564;2023-06-19T01:50:03;22.50;72.00
53962;DHT22;39868;53.398;6.564;2023-06-19T01:52:31;22.50;71.90
53962;DHT22;39868;53.398;6.564;2023-06-19T01:54:58;22.50;71.90
53962;DHT22;39868;53.398;6.564;2023-06-19T01:57:25;22.50;71.90
53962;DHT22;39868;53.398;6.564;2023-06-19T01:59:53;22.50;71.90
53962;DHT22;39868;53.398;6.564;2023-06-19T02:02:21;22.50;71.90
53962;DHT22;39868;53.398;6.564;2023-06-19T02:04:49;22.50;71.90
53962;DHT22;39868;53.398;6.564;2023-06-19T02:07:16;22.50;71.90
53962;DHT22;39868;53.398;6.564;2023-06-19T02:09:44;22.40;71.80
53962;DHT22;39868;53.398;6.564;2023-06-19T02:12:12;22.50;71.90
53962;DHT22;39868;53.398;6.564;2023-06-19T02:14:39;22.50;71.90
53962;DHT22;39868;53.398;6.564;2023-06-19T02:17:06;22.50;71.90
53962;DHT22;39868;53.398;6.564;2023-06-19T02:19:34;22.50;71.80
53962;DHT22;39868;53.398;6.564;2023-06-19T02:22:01;22.50;71.80
53962;DHT22;39868;53.398;6.564;2023-06-19T02:24:29;22.50;71.80
53962;DHT22;39868;53.398;6.564;2023-06-19T02:26:56;22.50;71.80
53962;DHT22;39868;53.398;6.564;2023-06-19T02:29:24;22.50;71.80
53962;DHT22;39868;53.398;6.564;2023-06-19T02:31:51;22.50;71.80
53962;DHT22;39868;53.398;6.564;2023-06-19T02:34:18;22.40;71.70
53962;DHT22;39868;53.398;6.564;2023-06-19T02:36:46;22.40;71.70
53962;DHT22;39868;53.398;6.564;2023-06-19T02:39:14;22.40;71.70
53962;DHT22;39868;53.398;6.564;2023-06-19T02:41:41;22.40;71.70
53962;DHT22;39868;53.398;6.564;2023-06-19T02:44:13;22.40;71.70
53962;DHT22;39868;53.398;6.564;2023-06-19T02:46:43;22.40;71.70
53962;DHT22;39868;53.398;6.564;2023-06-19T02:49:10;22.40;71.70
53962;DHT22;39868;53.398;6.564;2023-06-19T02:51:37;22.40;71.60
53962;DHT22;39868;53.398;6.564;2023-06-19T02:54:08;22.40;71.60
53962;DHT22;39868;53.398;6.564;2023-06-19T02:56:35;22.40;71.60
53962;DHT22;39868;53.398;6.564;2023-06-19T02:59:02;22.40;71.60
53962;DHT22;39868;53.398;6.564;2023-06-19T03:01:29;22.40;71.60
53962;DHT22;39868;53.398;6.564;2023-06-19T03:03:57;22.40;71.50
53962;DHT22;39868;53.398;6.564;2023-06-19T03:06:24;22.40;71.50
53962;DHT22;39868;53.398;6.564;2023-06-19T03:08:53;22.40;71.50
53962;DHT22;39868;53.398;6.564;2023-06-19T03:11:20;22.40;71.50
53962;DHT22;39868;53.398;6.564;2023-06-19T03:13:51;22.40;71.50
53962;DHT22;39868;53.398;6.564;2023-06-19T03:16:19;22.40;71.40
53962;DHT22;39868;53.398;6.564;2023-06-19T03:18:48;22.40;71.40
53962;DHT22;39868;53.398;6.564;2023-06-19T03:21:20;22.40;71.30
53962;DHT22;39868;53.398;6.564;2023-06-19T03:23:50;22.40;71.30
53962;DHT22;39868;53.398;6.564;2023-06-19T03:26:20;22.40;71.30
53962;DHT22;39868;53.398;6.564;2023-06-19T03:28:47;22.40;71.30
53962;DHT22;39868;53.398;6.564;2023-06-19T03:31:15;22.40;71.30
53962;DHT22;39868;53.398;6.564;2023-06-19T03:33:43;22.40;71.30
53962;DHT22;39868;53.398;6.564;2023-06-19T03:36:10;22.40;71.20
53962;DHT22;39868;53.398;6.564;2023-06-19T03:38:47;22.40;71.20
53962;DHT22;39868;53.398;6.564;2023-06-19T03:41:19;22.40;71.20
53962;DHT22;39868;53.398;6.564;2023-06-19T03:43:46;22.40;71.20
53962;DHT22;39868;53.398;6.564;2023-06-19T03:46:14;22.40;71.10
53962;DHT22;39868;53.398;6.564;2023-06-19T03:48:41;22.40;71.10
53962;DHT22;39868;53.398;6.564;2023-06-19T03:51:09;22.40;71.10
53962;DHT22;39868;53.398;6.564;2023-06-19T03:53:36;22.40;71.10
53962;DHT22;39868;53.398;6.564;2023-06-19T03:56:03;22.40;71.00
53962;DHT22;39868;53.398;6.564;2023-06-19T03:58:31;22.40;71.00
53962;DHT22;39868;53.398;6.564;2023-06-19T04:00:58;22.40;71.10
53962;DHT22;39868;53.398;6.564;2023-06-19T04:03:26;22.40;71.00
53962;DHT22;39868;53.398;6.564;2023-06-19T04:05:53;22.40;71.00
53962;DHT22;39868;53.398;6.564;2023-06-19T04:08:20;22.40;71.00
53962;DHT22;39868;53.398;6.564;2023-06-19T04:10:47;22.40;71.00
53962;DHT22;39868;53.398;6.564;2023-06-19T04:13:15;22.40;71.00
53962;DHT22;39868;53.398;6.564;2023-06-19T04:15:44;22.40;71.00
53962;DHT22;39868;53.398;6.564;2023-06-19T04:18:14;22.40;71.00
53962;DHT22;39868;53.398;6.564;2023-06-19T04:20:41;22.40;70.90
53962;DHT22;39868;53.398;6.564;2023-06-19T04:23:11;22.40;70.90
53962;DHT22;39868;53.398;6.564;2023-06-19T04:25:40;22.40;71.00
53962;DHT22;39868;53.398;6.564;2023-06-19T04:28:07;22.40;70.90
53962;DHT22;39868;53.398;6.564;2023-06-19T04:30:34;22.40;70.90
53962;DHT22;39868;53.398;6.564;2023-06-19T04:33:01;22.40;70.90
53962;DHT22;39868;53.398;6.564;2023-06-19T04:35:28;22.40;70.90
53962;DHT22;39868;53.398;6.564;2023-06-19T04:37:56;22.40;70.90
53962;DHT22;39868;53.398;6.564;2023-06-19T04:40:23;22.40;70.90
53962;DHT22;39868;53.398;6.564;2023-06-19T04:42:53;22.40;70.90
53962;DHT22;39868;53.398;6.564;2023-06-19T04:45:20;22.40;71.00
53962;DHT22;39868;53.398;6.564;2023-06-19T04:47:48;22.40;70.90
53962;DHT22;39868;53.398;6.564;2023-06-19T04:50:20;22.40;70.90
53962;DHT22;39868;53.398;6.564;2023-06-19T04:52:48;22.40;70.90
53962;DHT22;39868;53.398;6.564;2023-06-19T04:55:18;22.40;70.90
53962;DHT22;39868;53.398;6.564;2023-06-19T04:57:45;22.40;71.00
53962;DHT22;39868;53.398;6.564;2023-06-19T05:00:13;22.50;71.00
53962;DHT22;39868;53.398;6.564;2023-06-19T05:02:42;22.50;71.00
53962;DHT22;39868;53.398;6.564;2023-06-19T05:05:11;22.50;71.00
53962;DHT22;39868;53.398;6.564;2023-06-19T05:07:38;22.50;71.00
53962;DHT22;39868;53.398;6.564;2023-06-19T05:10:06;22.50;71.00
53962;DHT22;39868;53.398;6.564;2023-06-19T05:12:34;22.60;71.00
53962;DHT22;39868;53.398;6.564;2023-06-19T05:15:01;22.60;71.10
53962;DHT22;39868;53.398;6.564;2023-06-19T05:17:29;22.60;71.00
53962;DHT22;39868;53.398;6.564;2023-06-19T05:19:56;22.70;71.10
53962;DHT22;39868;53.398;6.564;2023-06-19T05:22:23;22.70;71.10
53962;DHT22;39868;53.398;6.564;2023-06-19T05:24:51;22.70;71.10
53962;DHT22;39868;53.398;6.564;2023-06-19T05:27:18;22.80;71.10
53962;DHT22;39868;53.398;6.564;2023-06-19T05:29:45;22.80;71.10
53962;DHT22;39868;53.398;6.564;2023-06-19T05:32:13;22.80;71.10
53962;DHT22;39868;53.398;6.564;2023-06-19T05:34:40;22.80;71.10
53962;DHT22;39868;53.398;6.564;2023-06-19T05:37:07;22.90;71.20
53962;DHT22;39868;53.398;6.564;2023-06-19T05:39:34;22.90;71.20
53962;DHT22;39868;53.398;6.564;2023-06-19T05:42:01;22.90;71.20
53962;DHT22;39868;53.398;6.564;2023-06-19T05:44:29;23.00;71.30
53962;DHT22;39868;53.398;6.564;2023-06-19T05:46:56;23.00;71.40
53962;DHT22;39868;53.398;6.564;2023-06-19T05:49:23;23.10;71.40
53962;DHT22;39868;53.398;6.564;2023-06-19T05:51:50;23.10;71.40
53962;DHT22;39868;53.398;6.564;2023-06-19T05:54:17;23.10;71.40
53962;DHT22;39868;53.398;6.564;2023-06-19T05:56:44;23.20;71.50
53962;DHT22;39868;53.398;6.564;2023-06-19T05:59:12;23.20;71.50
53962;DHT22;39868;53.398;6.564;2023-06-19T06:01:41;23.30;71.60
53962;DHT22;39868;53.398;6.564;2023-06-19T06:04:08;23.40;71.60
53962;DHT22;39868;53.398;6.564;2023-06-19T06:06:36;23.50;71.70
53962;DHT22;39868;53.398;6.564;2023-06-19T06:09:03;23.50;71.70
53962;DHT22;39868;53.398;6.564;2023-06-19T06:11:31;23.60;71.70
53962;DHT22;39868;53.398;6.564;2023-06-19T06:13:58;23.60;71.70
53962;DHT22;39868;53.398;6.564;2023-06-19T06:16:25;23.70;71.60
53962;DHT22;39868;53.398;6.564;2023-06-19T06:18:52;23.70;71.60
53962;DHT22;39868;53.398;6.564;2023-06-19T06:21:19;23.70;71.50
53962;DHT22;39868;53.398;6.564;2023-06-19T06:23:47;23.70;71.50
53962;DHT22;39868;53.398;6.564;2023-06-19T06:26:14;23.70;71.40
53962;DHT22;39868;53.398;6.564;2023-06-19T06:28:42;23.80;71.40
53962;DHT22;39868;53.398;6.564;2023-06-19T06:31:09;23.80;71.40
53962;DHT22;39868;53.398;6.564;2023-06-19T06:33:36;23.80;71.40
53962;DHT22;39868;53.398;6.564;2023-06-19T06:36:03;23.80;71.40
53962;DHT22;39868;53.398;6.564;2023-06-19T06:38:34;23.90;71.50
53962;DHT22;39868;53.398;6.564;2023-06-19T06:41:01;23.90;71.50
53962;DHT22;39868;53.398;6.564;2023-06-19T06:43:28;24.00;71.60
53962;DHT22;39868;53.398;6.564;2023-06-19T06:45:56;24.00;71.70
53962;DHT22;39868;53.398;6.564;2023-06-19T06:48:23;24.00;71.60
53962;DHT22;39868;53.398;6.564;2023-06-19T06:50:50;24.00;71.60
53962;DHT22;39868;53.398;6.564;2023-06-19T06:53:19;24.10;71.60
53962;DHT22;39868;53.398;6.564;2023-06-19T06:55:46;24.10;71.60
53962;DHT22;39868;53.398;6.564;2023-06-19T06:58:14;24.10;71.60
53962;DHT22;39868;53.398;6.564;2023-06-19T07:00:41;24.20;71.60
53962;DHT22;39868;53.398;6.564;2023-06-19T07:03:08;24.10;71.50
53962;DHT22;39868;53.398;6.564;2023-06-19T07:05:36;24.10;71.60
53962;DHT22;39868;53.398;6.564;2023-06-19T07:08:03;24.20;71.60
53962;DHT22;39868;53.398;6.564;2023-06-19T07:10:31;24.10;72.10
53962;DHT22;39868;53.398;6.564;2023-06-19T07:12:58;24.20;71.60
53962;DHT22;39868;53.398;6.564;2023-06-19T07:15:25;24.10;71.50
53962;DHT22;39868;53.398;6.564;2023-06-19T07:17:52;24.10;71.50
53962;DHT22;39868;53.398;6.564;2023-06-19T07:20:19;24.10;71.60
53962;DHT22;39868;53.398;6.564;2023-06-19T07:22:47;24.10;71.60
53962;DHT22;39868;53.398;6.564;2023-06-19T07:25:17;24.10;71.70
53962;DHT22;39868;53.398;6.564;2023-06-19T07:27:45;24.10;71.80
53962;DHT22;39868;53.398;6.564;2023-06-19T07:30:13;24.10;71.90
53962;DHT22;39868;53.398;6.564;2023-06-19T07:32:46;24.10;71.90
53962;DHT22;39868;53.398;6.564;2023-06-19T07:35:13;24.10;72.00
53962;DHT22;39868;53.398;6.564;2023-06-19T07:37:40;24.20;72.40
53962;DHT22;39868;53.398;6.564;2023-06-19T07:40:08;24.20;72.60
53962;DHT22;39868;53.398;6.564;2023-06-19T07:42:35;24.20;72.50
53962;DHT22;39868;53.398;6.564;2023-06-19T07:45:03;24.20;72.70
53962;DHT22;39868;53.398;6.564;2023-06-19T07:47:30;24.20;72.70
53962;DHT22;39868;53.398;6.564;2023-06-19T07:49:57;24.20;72.70
53962;DHT22;39868;53.398;6.564;2023-06-19T07:52:24;24.20;72.60
53962;DHT22;39868;53.398;6.564;2023-06-19T07:54:53;24.10;72.60
53962;DHT22;39868;53.398;6.564;2023-06-19T07:57:20;24.10;72.50
53962;DHT22;39868;53.398;6.564;2023-06-19T07:59:48;24.00;72.30
53962;DHT22;39868;53.398;6.564;2023-06-19T08:02:16;23.90;72.30
53962;DHT22;39868;53.398;6.564;2023-06-19T08:04:43;23.90;72.50
53962;DHT22;39868;53.398;6.564;2023-06-19T08:07:10;23.80;72.40
53962;DHT22;39868;53.398;6.564;2023-06-19T08:09:38;23.70;72.50
53962;DHT22;39868;53.398;6.564;2023-06-19T08:12:05;23.60;72.70
53962;DHT22;39868;53.398;6.564;2023-06-19T08:14:32;23.60;72.80
53962;DHT22;39868;53.398;6.564;2023-06-19T08:16:59;23.50;72.90
53962;DHT22;39868;53.398;6.564;2023-06-19T08:19:27;23.40;72.80
53962;DHT22;39868;53.398;6.564;2023-06-19T08:21:54;23.40;73.10
53962;DHT22;39868;53.398;6.564;2023-06-19T08:24:21;23.30;73.10
53962;DHT22;39868;53.398;6.564;2023-06-19T08:26:48;23.20;73.20
53962;DHT22;39868;53.398;6.564;2023-06-19T08:29:18;23.20;73.20
53962;DHT22;39868;53.398;6.564;2023-06-19T08:31:45;23.20;73.40
53962;DHT22;39868;53.398;6.564;2023-06-19T08:34:12;23.10;73.40
53962;DHT22;39868;53.398;6.564;2023-06-19T08:36:40;23.10;73.60
53962;DHT22;39868;53.398;6.564;2023-06-19T08:39:07;23.10;73.80
53962;DHT22;39868;53.398;6.564;2023-06-19T08:41:38;23.10;73.80
53962;DHT22;39868;53.398;6.564;2023-06-19T08:44:05;23.10;74.00
53962;DHT22;39868;53.398;6.564;2023-06-19T08:46:33;23.10;73.90
53962;DHT22;39868;53.398;6.564;2023-06-19T08:49:01;23.10;74.00
53962;DHT22;39868;53.398;6.564;2023-06-19T08:51:28;23.10;74.00
53962;DHT22;39868;53.398;6.564;2023-06-19T08:54:01;23.10;74.20
53962;DHT22;39868;53.398;6.564;2023-06-19T08:56:29;23.10;74.40
53962;DHT22;39868;53.398;6.564;2023-06-19T08:59:11;23.00;74.40
53962;DHT22;39868;53.398;6.564;2023-06-19T09:01:38;23.10;74.60
53962;DHT22;39868;53.398;6.564;2023-06-19T09:04:10;23.00;74.30
53962;DHT22;39868;53.398;6.564;2023-06-19T09:09:15;23.00;74.40
53962;DHT22;39868;53.398;6.564;2023-06-19T09:11:54;23.00;74.40
53962;DHT22;39868;53.398;6.564;2023-06-19T09:17:07;23.00;74.40
53962;DHT22;39868;53.398;6.564;2023-06-19T09:19:46;22.90;74.40
53962;DHT22;39868;53.398;6.564;2023-06-19T09:22:16;22.90;74.70
53962;DHT22;39868;53.398;6.564;2023-06-19T09:24:47;22.90;74.70
53962;DHT22;39868;53.398;6.564;2023-06-19T09:27:17;22.90;74.80
53962;DHT22;39868;53.398;6.564;2023-06-19T09:29:50;22.90;74.70
53962;DHT22;39868;53.398;6.564;2023-06-19T09:32:21;22.90;74.70
53962;DHT22;39868;53.398;6.564;2023-06-19T09:34:53;22.90;74.90
53962;DHT22;39868;53.398;6.564;2023-06-19T09:37:25;22.90;75.00
53962;DHT22;39868;53.398;6.564;2023-06-19T09:39:55;22.90;75.00
53962;DHT22;39868;53.398;6.564;2023-06-19T09:42:27;23.00;75.10
53962;DHT22;39868;53.398;6.564;2023-06-19T09:45:02;23.00;75.30
53962;DHT22;39868;53.398;6.564;2023-06-19T09:47:52;23.00;75.40
53962;DHT22;39868;53.398;6.564;2023-06-19T09:50:18;23.10;75.30
53962;DHT22;39868;53.398;6.564;2023-06-19T09:52:49;23.20;75.20
53962;DHT22;39868;53.398;6.564;2023-06-19T09:55:18;23.20;75.20
53962;DHT22;39868;53.398;6.564;2023-06-19T09:57:46;23.20;75.10
53962;DHT22;39868;53.398;6.564;2023-06-19T10:00:14;23.30;75.00
53962;DHT22;39868;53.398;6.564;2023-06-19T10:02:49;23.30;75.00
53962;DHT22;39868;53.398;6.564;2023-06-19T10:05:17;23.40;75.00
53962;DHT22;39868;53.398;6.564;2023-06-19T10:07:54;23.40;74.90
53962;DHT22;39868;53.398;6.564;2023-06-19T10:10:26;23.40;74.80
53962;DHT22;39868;53.398;6.564;2023-06-19T10:12:59;23.50;74.70
53962;DHT22;39868;53.398;6.564;2023-06-19T10:15:29;23.50;74.60
53962;DHT22;39868;53.398;6.564;2023-06-19T10:18:03;23.50;74.60
53962;DHT22;39868;53.398;6.564;2023-06-19T10:20:34;23.50;74.40
53962;DHT22;39868;53.398;6.564;2023-06-19T10:23:16;23.60;74.40
53962;DHT22;39868;53.398;6.564;2023-06-19T10:25:47;23.60;74.30
53962;DHT22;39868;53.398;6.564;2023-06-19T10:28:19;23.60;74.20
53962;DHT22;39868;53.398;6.564;2023-06-19T10:33:25;23.60;73.80
53962;DHT22;39868;53.398;6.564;2023-06-19T10:35:52;23.60;73.60
53962;DHT22;39868;53.398;6.564;2023-06-19T10:38:19;23.60;73.40
53962;DHT22;39868;53.398;6.564;2023-06-19T10:40:47;23.60;73.40
53962;DHT22;39868;53.398;6.564;2023-06-19T10:43:21;23.60;73.30
53962;DHT22;39868;53.398;6.564;2023-06-19T10:45:55;23.50;73.10
53962;DHT22;39868;53.398;6.564;2023-06-19T10:48:24;23.50;73.20
53962;DHT22;39868;53.398;6.564;2023-06-19T10:50:51;23.50;73.30
53962;DHT22;39868;53.398;6.564;2023-06-19T10:53:31;23.50;73.40
53962;DHT22;39868;53.398;6.564;2023-06-19T10:55:59;23.50;73.30
53962;DHT22;39868;53.398;6.564;2023-06-19T10:58:27;23.50;73.30
53962;DHT22;39868;53.398;6.564;2023-06-19T11:00:55;23.50;73.40
53962;DHT22;39868;53.398;6.564;2023-06-19T11:03:22;23.60;73.50
53962;DHT22;39868;53.398;6.564;2023-06-19T11:05:49;23.60;73.50
53962;DHT22;39868;53.398;6.564;2023-06-19T11:08:17;23.70;73.60
53962;DHT22;39868;53.398;6.564;2023-06-19T11:10:45;23.70;73.60
53962;DHT22;39868;53.398;6.564;2023-06-19T11:13:16;23.80;73.50
53962;DHT22;39868;53.398;6.564;2023-06-19T11:15:43;23.90;73.60
53962;DHT22;39868;53.398;6.564;2023-06-19T11:18:11;23.90;73.50
53962;DHT22;39868;53.398;6.564;2023-06-19T11:20:48;24.00;73.40
53962;DHT22;39868;53.398;6.564;2023-06-19T11:23:26;24.00;73.40
53962;DHT22;39868;53.398;6.564;2023-06-19T11:25:54;24.10;73.20
53962;DHT22;39868;53.398;6.564;2023-06-19T11:28:26;24.20;73.10
53962;DHT22;39868;53.398;6.564;2023-06-19T11:31:00;24.20;73.00
53962;DHT22;39868;53.398;6.564;2023-06-19T11:33:30;24.30;72.80
53962;DHT22;39868;53.398;6.564;2023-06-19T11:36:01;24.30;72.80
53962;DHT22;39868;53.398;6.564;2023-06-19T11:38:29;24.40;72.80
53962;DHT22;39868;53.398;6.564;2023-06-19T11:40:57;24.40;72.40
53962;DHT22;39868;53.398;6.564;2023-06-19T11:43:28;24.40;72.40
53962;DHT22;39868;53.398;6.564;2023-06-19T11:46:04;24.50;72.40
53962;DHT22;39868;53.398;6.564;2023-06-19T11:48:32;24.50;72.40
53962;DHT22;39868;53.398;6.564;2023-06-19T11:50:59;24.50;72.40
53962;DHT22;39868;53.398;6.564;2023-06-19T11:53:26;24.60;72.40
53962;DHT22;39868;53.398;6.564;2023-06-19T11:55:54;24.60;72.40
53962;DHT22;39868;53.398;6.564;2023-06-19T11:58:21;24.70;72.40
53962;DHT22;39868;53.398;6.564;2023-06-19T12:00:48;24.80;72.30
53962;DHT22;39868;53.398;6.564;2023-06-19T12:03:17;24.90;72.40
53962;DHT22;39868;53.398;6.564;2023-06-19T12:05:45;25.00;71.70
53962;DHT22;39868;53.398;6.564;2023-06-19T12:08:12;25.10;71.30
53962;DHT22;39868;53.398;6.564;2023-06-19T12:10:39;25.20;71.20
53962;DHT22;39868;53.398;6.564;2023-06-19T12:13:07;25.20;71.50
53962;DHT22;39868;53.398;6.564;2023-06-19T12:15:34;25.30;71.40
53962;DHT22;39868;53.398;6.564;2023-06-19T12:18:03;25.50;71.40
53962;DHT22;39868;53.398;6.564;2023-06-19T12:20:31;25.50;71.10
53962;DHT22;39868;53.398;6.564;2023-06-19T12:22:58;25.60;70.90
53962;DHT22;39868;53.398;6.564;2023-06-19T12:25:25;25.60;70.80
53962;DHT22;39868;53.398;6.564;2023-06-19T12:27:53;25.70;70.60
53962;DHT22;39868;53.398;6.564;2023-06-19T12:30:21;25.70;70.70
53962;DHT22;39868;53.398;6.564;2023-06-19T12:32:49;25.80;70.60
53962;DHT22;39868;53.398;6.564;2023-06-19T12:35:17;25.90;70.70
53962;DHT22;39868;53.398;6.564;2023-06-19T12:37:45;25.90;70.50
53962;DHT22;39868;53.398;6.564;2023-06-19T12:40:12;26.00;69.90
53962;DHT22;39868;53.398;6.564;2023-06-19T12:42:40;26.00;69.60
53962;DHT22;39868;53.398;6.564;2023-06-19T12:45:07;26.00;69.10
53962;DHT22;39868;53.398;6.564;2023-06-19T12:47:35;26.00;68.90
53962;DHT22;39868;53.398;6.564;2023-06-19T12:50:02;26.00;68.90
53962;DHT22;39868;53.398;6.564;2023-06-19T12:52:29;26.00;69.10
53962;DHT22;39868;53.398;6.564;2023-06-19T12:54:57;26.00;68.90
53962;DHT22;39868;53.398;6.564;2023-06-19T12:57:28;26.00;68.80
53962;DHT22;39868;53.398;6.564;2023-06-19T12:59:55;26.00;68.60
53962;DHT22;39868;53.398;6.564;2023-06-19T13:02:22;26.00;68.90
53962;DHT22;39868;53.398;6.564;2023-06-19T13:04:50;26.00;69.00
53962;DHT22;39868;53.398;6.564;2023-06-19T13:07:17;26.00;69.00
53962;DHT22;39868;53.398;6.564;2023-06-19T13:09:44;26.10;69.00
53962;DHT22;39868;53.398;6.564;2023-06-19T13:12:11;26.20;69.60
53962;DHT22;39868;53.398;6.564;2023-06-19T13:14:39;26.30;69.10
53962;DHT22;39868;53.398;6.564;2023-06-19T13:17:06;26.30;69.10
53962;DHT22;39868;53.398;6.564;2023-06-19T13:19:34;26.50;69.10
53962;DHT22;39868;53.398;6.564;2023-06-19T13:22:01;26.50;69.10
53962;DHT22;39868;53.398;6.564;2023-06-19T13:24:28;26.60;68.90
53962;DHT22;39868;53.398;6.564;2023-06-19T13:26:56;26.70;68.50
53962;DHT22;39868;53.398;6.564;2023-06-19T13:29:23;26.70;68.50
53962;DHT22;39868;53.398;6.564;2023-06-19T13:31:50;26.80;68.50
53962;DHT22;39868;53.398;6.564;2023-06-19T13:34:18;26.90;68.00
53962;DHT22;39868;53.398;6.564;2023-06-19T13:36:45;26.90;68.00
53962;DHT22;39868;53.398;6.564;2023-06-19T13:39:14;26.90;67.00
53962;DHT22;39868;53.398;6.564;2023-06-19T13:41:41;26.90;66.70
53962;DHT22;39868;53.398;6.564;2023-06-19T13:44:08;27.00;66.40
53962;DHT22;39868;53.398;6.564;2023-06-19T13:46:36;27.00;66.70
53962;DHT22;39868;53.398;6.564;2023-06-19T13:49:04;27.00;66.40
53962;DHT22;39868;53.398;6.564;2023-06-19T13:51:31;27.00;66.40
53962;DHT22;39868;53.398;6.564;2023-06-19T13:53:59;27.00;66.80
53962;DHT22;39868;53.398;6.564;2023-06-19T13:56:26;27.10;66.80
53962;DHT22;39868;53.398;6.564;2023-06-19T13:58:54;27.10;66.80
53962;DHT22;39868;53.398;6.564;2023-06-19T14:01:21;27.20;66.80
53962;DHT22;39868;53.398;6.564;2023-06-19T14:03:49;27.30;66.40
53962;DHT22;39868;53.398;6.564;2023-06-19T14:06:16;27.30;66.00
53962;DHT22;39868;53.398;6.564;2023-06-19T14:08:43;27.40;66.00
53962;DHT22;39868;53.398;6.564;2023-06-19T14:11:10;27.40;65.80
53962;DHT22;39868;53.398;6.564;2023-06-19T14:13:38;27.50;65.60
53962;DHT22;39868;53.398;6.564;2023-06-19T14:16:05;27.60;65.50
53962;DHT22;39868;53.398;6.564;2023-06-19T14:18:32;27.60;65.30
53962;DHT22;39868;53.398;6.564;2023-06-19T14:21:00;27.60;64.80
53962;DHT22;39868;53.398;6.564;2023-06-19T14:23:27;27.70;65.10
53962;DHT22;39868;53.398;6.564;2023-06-19T14:25:55;27.80;65.20
53962;DHT22;39868;53.398;6.564;2023-06-19T14:28:22;27.80;64.90
53962;DHT22;39868;53.398;6.564;2023-06-19T14:30:49;27.90;64.40
53962;DHT22;39868;53.398;6.564;2023-06-19T14:33:16;27.90;64.70
53962;DHT22;39868;53.398;6.564;2023-06-19T14:35:43;28.00;64.50
53962;DHT22;39868;53.398;6.564;2023-06-19T14:38:13;28.10;64.60
53962;DHT22;39868;53.398;6.564;2023-06-19T14:40:41;28.10;64.40
53962;DHT22;39868;53.398;6.564;2023-06-19T14:43:08;28.20;64.40
53962;DHT22;39868;53.398;6.564;2023-06-19T14:45:36;28.20;64.00
53962;DHT22;39868;53.398;6.564;2023-06-19T14:48:04;28.30;63.80
53962;DHT22;39868;53.398;6.564;2023-06-19T14:50:31;28.30;63.90
53962;DHT22;39868;53.398;6.564;2023-06-19T14:53:00;28.30;63.40
53962;DHT22;39868;53.398;6.564;2023-06-19T14:55:27;28.40;63.60
53962;DHT22;39868;53.398;6.564;2023-06-19T14:57:55;28.40;63.00
53962;DHT22;39868;53.398;6.564;2023-06-19T15:00:22;28.40;62.80
53962;DHT22;39868;53.398;6.564;2023-06-19T15:02:50;28.40;62.60
53962;DHT22;39868;53.398;6.564;2023-06-19T15:05:17;28.40;62.20
53962;DHT22;39868;53.398;6.564;2023-06-19T15:07:45;28.50;61.90
53962;DHT22;39868;53.398;6.564;2023-06-19T15:10:12;28.50;61.90
53962;DHT22;39868;53.398;6.564;2023-06-19T15:12:39;28.50;61.60
53962;DHT22;39868;53.398;6.564;2023-06-19T15:15:07;28.50;61.80
53962;DHT22;39868;53.398;6.564;2023-06-19T15:17:34;28.50;61.70
53962;DHT22;39868;53.398;6.564;2023-06-19T15:20:02;28.50;61.10
53962;DHT22;39868;53.398;6.564;2023-06-19T15:22:29;28.50;60.80
53962;DHT22;39868;53.398;6.564;2023-06-19T15:24:56;28.50;61.00
53962;DHT22;39868;53.398;6.564;2023-06-19T15:27:24;28.50;60.20
53962;DHT22;39868;53.398;6.564;2023-06-19T15:29:51;28.50;60.30
53962;DHT22;39868;53.398;6.564;2023-06-19T15:32:18;28.40;60.50
53962;DHT22;39868;53.398;6.564;2023-06-19T15:34:45;28.40;60.30
53962;DHT22;39868;53.398;6.564;2023-06-19T15:37:12;28.50;60.40
53962;DHT22;39868;53.398;6.564;2023-06-19T15:39:41;28.40;59.70
53962;DHT22;39868;53.398;6.564;2023-06-19T15:42:09;28.40;59.80
53962;DHT22;39868;53.398;6.564;2023-06-19T15:44:36;28.40;59.40
53962;DHT22;39868;53.398;6.564;2023-06-19T15:47:03;28.40;59.40
53962;DHT22;39868;53.398;6.564;2023-06-19T15:49:30;28.40;58.80